createdAt,value
2023-05-17T00:00:43.777Z,13.27
2023-05-17T00:02:46.805Z,13.00
2023-05-17T00:04:49.730Z,11.90
2023-05-17T00:06:52.607Z,13.02
2023-05-17T00:08:55.096Z,13.35
2023-05-17T00:10:57.619Z,13.45
2023-05-17T00:13:00.124Z,12.73
2023-05-17T00:15:02.916Z,12.13
2023-05-17T00:17:05.561Z,12.55
2023-05-17T00:19:10.613Z,12.20
2023-05-17T00:21:13.751Z,10.63
2023-05-17T00:23:16.109Z,12.15
2023-05-17T00:25:19.008Z,11.98
2023-05-17T00:27:22.309Z,10.32
2023-05-17T00:29:25.610Z,12.30
2023-05-17T00:31:28.412Z,9.20
2023-05-17T00:33:32.390Z,10.48
2023-05-17T00:35:35.319Z,10.70
2023-05-17T00:37:38.376Z,12.10
2023-05-17T00:39:41.427Z,9.73
2023-05-17T00:41:44.309Z,10.52
2023-05-17T00:43:47.229Z,10.52
2023-05-17T00:45:50.988Z,9.73
2023-05-17T00:47:53.794Z,9.57
2023-05-17T00:49:56.809Z,9.27
2023-05-17T00:52:00.807Z,9.45
2023-05-17T00:54:05.069Z,10.88
2023-05-17T00:56:07.937Z,7.93
2023-05-17T00:58:13.176Z,9.25
2023-05-17T01:00:16.273Z,10.73
2023-05-17T01:02:20.413Z,9.10
2023-05-17T01:04:24.317Z,9.77
2023-05-17T01:06:27.161Z,11.00
2023-05-17T01:08:31.135Z,10.18
2023-05-17T01:11:02.074Z,14.30
2023-05-17T01:13:18.870Z,11.07
2023-05-17T01:15:32.261Z,11.00
2023-05-17T01:17:42.911Z,12.27
2023-05-17T01:19:51.500Z,11.98
2023-05-17T01:22:18.226Z,11.52
2023-05-17T01:24:40.745Z,14.70
2023-05-17T01:26:47.716Z,14.32
2023-05-17T01:28:55.678Z,15.95
2023-05-17T01:31:01.790Z,16.27
2023-05-17T01:33:08.000Z,15.13
2023-05-17T01:35:15.863Z,14.50
2023-05-17T01:37:18.466Z,17.02
2023-05-17T01:39:22.534Z,18.27
2023-05-17T01:41:47.409Z,14.75
2023-05-17T01:44:10.594Z,17.88
2023-05-17T01:46:34.765Z,16.75
2023-05-17T01:48:46.086Z,20.33
2023-05-17T01:50:53.028Z,14.95
2023-05-17T01:53:03.921Z,20.00
2023-05-17T01:55:46.097Z,17.92
2023-05-17T01:57:54.358Z,18.77
2023-05-17T02:00:00.876Z,15.73
2023-05-17T02:02:09.862Z,16.40
2023-05-17T02:04:12.842Z,16.65
2023-05-17T02:06:15.552Z,15.38
2023-05-17T02:08:18.782Z,14.05
2023-05-17T02:10:21.675Z,15.75
2023-05-17T02:12:26.185Z,18.05
2023-05-17T02:14:29.206Z,16.95
2023-05-17T02:16:33.335Z,17.30
2023-05-17T02:18:38.017Z,17.00
2023-05-17T02:20:41.806Z,18.30
2023-05-17T02:22:44.534Z,15.55
2023-05-17T02:24:47.835Z,17.27
2023-05-17T02:26:50.312Z,15.82
2023-05-17T02:28:53.069Z,14.68
2023-05-17T02:30:56.869Z,16.42
2023-05-17T02:32:59.960Z,16.67
2023-05-17T02:35:02.627Z,14.68
2023-05-17T02:37:05.236Z,19.33
2023-05-17T02:39:07.760Z,14.93
2023-05-17T02:41:10.382Z,16.55
2023-05-17T02:43:12.939Z,16.30
2023-05-17T02:45:15.750Z,15.73
2023-05-17T02:47:18.537Z,16.15
2023-05-17T02:49:21.620Z,14.77
2023-05-17T02:51:24.668Z,11.55
2023-05-17T02:53:27.585Z,14.40
2023-05-17T02:55:30.449Z,15.20
2023-05-17T02:57:33.062Z,14.35
2023-05-17T02:59:35.956Z,18.20
2023-05-17T03:01:38.945Z,13.02
2023-05-17T03:03:41.762Z,14.48
2023-05-17T03:05:45.129Z,15.50
2023-05-17T03:07:48.651Z,15.02
2023-05-17T03:09:51.093Z,14.02
2023-05-17T03:11:54.254Z,13.57
2023-05-17T03:14:01.527Z,15.52
2023-05-17T03:16:06.525Z,15.23
2023-05-17T03:18:10.053Z,15.10
2023-05-17T03:20:15.244Z,13.60
2023-05-17T03:22:18.420Z,13.20
2023-05-17T03:24:20.993Z,13.65
2023-05-17T03:26:25.206Z,15.38
2023-05-17T03:28:28.207Z,14.52
2023-05-17T03:30:31.833Z,14.73
2023-05-17T03:32:35.064Z,14.98
2023-05-17T03:34:38.014Z,17.05
2023-05-17T03:36:40.900Z,14.85
2023-05-17T03:38:43.943Z,16.63
2023-05-17T03:40:46.297Z,15.52
2023-05-17T03:42:49.103Z,17.10
2023-05-17T03:44:52.676Z,18.75
2023-05-17T03:46:56.276Z,17.42
2023-05-17T03:49:00.019Z,14.50
2023-05-17T03:51:03.107Z,22.05
2023-05-17T03:53:06.669Z,21.30
2023-05-17T03:55:11.105Z,18.42
2023-05-17T03:57:14.351Z,18.30
2023-05-17T03:59:17.505Z,18.42
2023-05-17T04:01:21.272Z,18.67
2023-05-17T04:03:24.371Z,21.23
2023-05-17T04:05:27.934Z,15.73
2023-05-17T04:07:31.465Z,17.83
2023-05-17T04:09:35.637Z,17.98
2023-05-17T04:11:38.792Z,14.55
2023-05-17T04:13:43.073Z,16.80
2023-05-17T04:15:46.057Z,18.90
2023-05-17T04:17:49.038Z,20.42
2023-05-17T04:19:52.040Z,19.98
2023-05-17T04:21:55.606Z,21.40
2023-05-17T04:24:01.272Z,20.98
2023-05-17T04:26:06.557Z,17.23
2023-05-17T04:28:13.751Z,18.40
2023-05-17T04:30:16.686Z,22.38
2023-05-17T04:32:20.118Z,19.55
2023-05-17T04:34:25.598Z,16.40
2023-05-17T04:36:30.661Z,18.67
2023-05-17T04:38:33.596Z,17.73
2023-05-17T04:40:38.273Z,20.60
2023-05-17T04:42:41.588Z,19.77
2023-05-17T04:44:44.853Z,21.02
2023-05-17T04:46:47.483Z,17.42
2023-05-17T04:48:51.936Z,19.40
2023-05-17T04:50:54.955Z,19.00
2023-05-17T04:52:57.674Z,18.63
2023-05-17T04:55:00.421Z,19.05
2023-05-17T04:57:04.412Z,20.90
2023-05-17T04:59:30.502Z,20.05
2023-05-17T05:01:35.912Z,22.73
2023-05-17T05:03:39.154Z,18.40
2023-05-17T05:05:44.468Z,18.92
2023-05-17T05:07:47.906Z,18.67
2023-05-17T05:09:50.971Z,18.23
2023-05-17T05:11:54.448Z,18.65
2023-05-17T05:13:57.303Z,19.52
2023-05-17T05:15:59.952Z,18.60
2023-05-17T05:18:03.373Z,17.85
2023-05-17T05:20:07.286Z,18.05
2023-05-17T05:22:09.825Z,18.05
2023-05-17T05:24:13.127Z,18.95
2023-05-17T05:26:16.172Z,17.33
2023-05-17T05:28:18.885Z,18.15
2023-05-17T05:30:24.678Z,15.02
2023-05-17T05:32:30.372Z,17.80
2023-05-17T05:34:32.906Z,16.70
2023-05-17T05:36:35.515Z,18.23
2023-05-17T05:38:38.187Z,18.70
2023-05-17T05:40:43.446Z,17.10
2023-05-17T05:42:46.052Z,16.20
2023-05-17T05:44:49.041Z,16.27
2023-05-17T05:46:52.832Z,20.55
2023-05-17T05:48:55.539Z,20.88
2023-05-17T05:50:58.072Z,17.35
2023-05-17T05:53:14.324Z,19.83
2023-05-17T05:55:23.420Z,20.83
2023-05-17T05:57:26.341Z,18.77
2023-05-17T05:59:29.179Z,17.73
2023-05-17T06:01:34.476Z,18.02
2023-05-17T06:03:38.411Z,16.85
2023-05-17T06:05:41.207Z,20.88
2023-05-17T06:07:44.102Z,19.27
2023-05-17T06:09:46.635Z,18.20
2023-05-17T06:11:51.587Z,17.67
2023-05-17T06:13:54.438Z,14.85
2023-05-17T06:15:57.372Z,17.45
2023-05-17T06:18:00.290Z,22.55
2023-05-17T06:20:03.709Z,16.02
2023-05-17T06:22:06.496Z,18.98
2023-05-17T06:24:09.660Z,19.00
2023-05-17T06:26:12.279Z,16.02
2023-05-17T06:28:15.603Z,19.42
2023-05-17T06:30:21.044Z,18.42
2023-05-17T06:32:23.757Z,17.95
2023-05-17T06:34:26.683Z,15.30
2023-05-17T06:36:30.670Z,18.10
2023-05-17T06:38:35.852Z,16.23
2023-05-17T06:40:38.715Z,14.85
2023-05-17T06:42:41.765Z,20.63
2023-05-17T06:44:44.583Z,16.33
2023-05-17T06:46:47.701Z,16.33
2023-05-17T06:48:51.395Z,15.80
2023-05-17T06:50:54.247Z,14.50
2023-05-17T06:52:57.110Z,14.77
2023-05-17T06:54:59.882Z,13.93
2023-05-17T06:57:03.967Z,15.50
2023-05-17T06:59:06.876Z,14.15
2023-05-17T07:01:09.716Z,13.07
2023-05-17T07:03:12.867Z,13.63
2023-05-17T07:05:16.066Z,14.23
2023-05-17T07:07:18.715Z,14.25
2023-05-17T07:09:22.686Z,13.35
2023-05-17T07:11:25.274Z,15.50
2023-05-17T07:13:27.865Z,13.23
2023-05-17T07:15:31.155Z,13.23
2023-05-17T07:17:34.788Z,10.68
2023-05-17T07:19:38.022Z,11.75
2023-05-17T07:21:40.736Z,13.30
2023-05-17T07:23:43.352Z,13.52
2023-05-17T07:25:46.738Z,13.73
2023-05-17T07:27:49.634Z,11.45
2023-05-17T07:29:52.859Z,11.50
2023-05-17T07:31:56.630Z,12.27
2023-05-17T07:33:59.273Z,19.00
2023-05-17T07:36:01.965Z,10.02
2023-05-17T07:38:05.508Z,11.75
2023-05-17T07:40:09.169Z,11.65
2023-05-17T07:42:12.402Z,11.52
2023-05-17T07:44:14.967Z,11.05
2023-05-17T07:46:18.611Z,13.38
2023-05-17T07:48:21.640Z,11.98
2023-05-17T07:50:24.785Z,10.43
2023-05-17T07:52:27.796Z,12.88
2023-05-17T07:54:31.460Z,9.32
2023-05-17T07:56:34.839Z,11.15
2023-05-17T07:58:37.673Z,14.98
2023-05-17T08:00:43.243Z,12.27
2023-05-17T08:02:46.803Z,9.82
2023-05-17T08:04:50.481Z,11.15
2023-05-17T08:06:55.808Z,12.00
2023-05-17T08:08:59.508Z,9.27
2023-05-17T08:11:02.762Z,10.52
2023-05-17T08:13:06.542Z,12.57
2023-05-17T08:15:10.024Z,12.32
2023-05-17T08:17:12.982Z,9.70
2023-05-17T08:19:17.014Z,9.38
2023-05-17T08:21:20.688Z,9.18
2023-05-17T08:23:23.403Z,9.75
2023-05-17T08:25:26.723Z,10.90
2023-05-17T08:27:31.875Z,7.70
2023-05-17T08:29:36.099Z,8.27
2023-05-17T08:31:39.594Z,10.35
2023-05-17T08:33:43.386Z,12.88
2023-05-17T08:35:48.360Z,10.93
2023-05-17T08:37:52.213Z,8.38
2023-05-17T08:39:55.723Z,13.95
2023-05-17T08:42:00.068Z,10.18
2023-05-17T08:44:04.637Z,8.27
2023-05-17T08:46:09.812Z,9.10
2023-05-17T08:48:12.916Z,8.35
2023-05-17T08:50:15.792Z,12.00
2023-05-17T08:52:19.010Z,13.07
2023-05-17T08:54:23.105Z,9.52
2023-05-17T08:56:29.636Z,8.93
2023-05-17T08:58:52.233Z,6.60
2023-05-17T09:01:00.396Z,10.82
2023-05-17T09:03:03.296Z,8.13
2023-05-17T09:05:07.341Z,8.18
2023-05-17T09:07:10.281Z,8.18
2023-05-17T09:09:14.204Z,7.32
2023-05-17T09:11:27.283Z,11.32
2023-05-17T09:13:29.902Z,8.68
2023-05-17T09:15:34.648Z,7.82
2023-05-17T09:17:38.471Z,7.72
2023-05-17T09:19:46.217Z,9.52
2023-05-17T09:21:49.551Z,10.25
2023-05-17T09:24:05.575Z,7.45
2023-05-17T09:26:10.159Z,9.25
2023-05-17T09:28:13.140Z,8.48
2023-05-17T09:30:16.316Z,8.30
2023-05-17T09:32:22.940Z,7.28
2023-05-17T09:36:28.806Z,9.88
2023-05-17T09:38:31.622Z,8.82
2023-05-17T09:40:35.143Z,9.38
2023-05-17T09:42:39.613Z,8.30
2023-05-17T09:44:50.570Z,10.13
2023-05-17T09:46:53.521Z,9.18
2023-05-17T09:48:57.150Z,9.32
2023-05-17T09:51:01.104Z,8.48
2023-05-17T09:53:03.560Z,8.20
2023-05-17T09:55:07.995Z,8.77
2023-05-17T09:57:11.068Z,10.75
2023-05-17T09:59:16.496Z,8.85
2023-05-17T10:01:20.602Z,8.23
2023-05-17T10:03:24.706Z,8.13
2023-05-17T10:05:28.462Z,9.48
2023-05-17T10:07:32.389Z,7.72
2023-05-17T10:09:37.519Z,8.30
2023-05-17T10:11:41.889Z,8.65
2023-05-17T10:13:53.754Z,6.78
2023-05-17T10:15:57.456Z,8.23
2023-05-17T10:18:01.157Z,8.68
2023-05-17T10:20:07.806Z,12.07
2023-05-17T10:24:23.549Z,6.57
2023-05-17T10:26:26.850Z,8.60
2023-05-17T10:28:30.643Z,10.35
2023-05-17T10:30:35.048Z,8.15
2023-05-17T10:32:38.858Z,11.45
2023-05-17T10:34:42.061Z,12.93
2023-05-17T10:36:45.987Z,10.50
2023-05-17T10:38:49.052Z,7.40
2023-05-17T10:40:54.646Z,8.45
2023-05-17T10:42:59.319Z,8.85
2023-05-17T10:45:04.776Z,8.95
2023-05-17T10:47:09.705Z,9.00
2023-05-17T10:49:12.656Z,8.60
2023-05-17T10:51:19.118Z,8.93
2023-05-17T10:53:21.825Z,9.45
2023-05-17T10:55:26.226Z,10.05
2023-05-17T10:57:50.778Z,10.20
2023-05-17T11:00:06.742Z,9.13
2023-05-17T11:02:11.005Z,11.02
2023-05-17T11:04:41.924Z,6.82
2023-05-17T11:06:46.535Z,8.13
2023-05-17T11:09:14.351Z,11.20
2023-05-17T11:11:21.748Z,9.25
2023-05-17T11:13:29.716Z,8.82
2023-05-17T11:15:34.073Z,7.50
2023-05-17T11:17:51.977Z,7.75
2023-05-17T11:19:54.793Z,9.77
2023-05-17T11:21:58.095Z,10.55
2023-05-17T11:24:04.359Z,8.20
2023-05-17T11:26:23.709Z,7.32
2023-05-17T11:28:27.254Z,9.07
2023-05-17T11:30:32.532Z,8.82
2023-05-17T11:32:35.564Z,9.32
2023-05-17T11:34:39.234Z,9.70
2023-05-17T11:36:55.957Z,8.40
2023-05-17T11:39:15.832Z,10.10
2023-05-17T11:43:31.385Z,9.57
2023-05-17T11:45:44.883Z,9.80
2023-05-17T11:47:49.148Z,8.95
2023-05-17T11:49:56.392Z,10.40
2023-05-17T11:52:00.739Z,11.32
2023-05-17T11:54:04.758Z,10.90
2023-05-17T11:56:09.238Z,10.45
2023-05-17T11:58:14.845Z,12.63
2023-05-17T12:00:29.229Z,12.45
2023-05-17T12:02:33.435Z,9.95
2023-05-17T12:04:38.192Z,9.23
2023-05-17T12:06:42.978Z,10.93
2023-05-17T12:08:47.679Z,17.95
2023-05-17T12:10:52.770Z,10.98
2023-05-17T12:12:57.713Z,8.77
2023-05-17T12:15:00.750Z,8.55
2023-05-17T12:17:06.568Z,10.73
2023-05-17T12:19:22.811Z,10.30
2023-05-17T12:21:26.367Z,7.22
2023-05-17T12:23:37.454Z,9.43
2023-05-17T12:25:40.152Z,8.88
2023-05-17T12:27:43.123Z,11.50
2023-05-17T12:29:46.186Z,11.68
2023-05-17T12:31:51.313Z,9.77
2023-05-17T12:33:54.657Z,10.00
2023-05-17T12:35:58.727Z,9.70
2023-05-17T12:38:02.126Z,8.95
2023-05-17T12:40:06.221Z,10.23
2023-05-17T12:42:10.010Z,11.38
2023-05-17T12:44:16.401Z,14.25
2023-05-17T12:46:23.803Z,10.32
2023-05-17T12:48:27.636Z,10.75
2023-05-17T12:50:32.456Z,8.95
2023-05-17T12:52:37.217Z,11.70
2023-05-17T12:54:40.249Z,12.45
2023-05-17T12:56:46.933Z,10.57
2023-05-17T12:59:07.759Z,12.93
2023-05-17T13:01:15.352Z,13.38
2023-05-17T13:03:18.177Z,12.63
2023-05-17T13:05:22.359Z,13.93
2023-05-17T13:07:26.056Z,14.15
2023-05-17T13:09:33.265Z,12.90
2023-05-17T13:11:41.048Z,14.77
2023-05-17T13:13:43.998Z,10.32
2023-05-17T13:15:50.630Z,9.85
2023-05-17T13:17:53.885Z,10.50
2023-05-17T13:19:58.365Z,10.82
2023-05-17T13:22:01.528Z,11.25
2023-05-17T13:24:04.159Z,12.23
2023-05-17T13:26:06.867Z,13.98
2023-05-17T13:28:09.736Z,14.07
2023-05-17T13:30:13.581Z,11.35
2023-05-17T13:32:16.389Z,13.27
2023-05-17T13:34:21.611Z,12.88
2023-05-17T13:36:24.644Z,15.70
2023-05-17T13:38:27.549Z,11.30
2023-05-17T13:40:30.423Z,11.13
2023-05-17T13:42:34.038Z,12.75
2023-05-17T13:44:36.661Z,12.30
2023-05-17T13:46:39.289Z,12.95
2023-05-17T13:48:42.987Z,10.85
2023-05-17T13:50:46.351Z,12.15
2023-05-17T13:52:49.013Z,12.77
2023-05-17T13:54:51.842Z,10.65
2023-05-17T13:56:56.149Z,10.85
2023-05-17T13:58:59.220Z,11.07
2023-05-17T14:01:02.449Z,11.20
2023-05-17T14:03:05.463Z,14.32
2023-05-17T14:05:10.340Z,10.95
2023-05-17T14:07:13.925Z,13.65
2023-05-17T14:09:17.335Z,13.18
2023-05-17T14:11:20.412Z,11.77
2023-05-17T14:13:23.666Z,16.10
2023-05-17T14:15:27.921Z,13.88
2023-05-17T14:17:31.181Z,14.88
2023-05-17T14:19:34.472Z,12.05
2023-05-17T14:21:37.631Z,12.82
2023-05-17T14:23:40.642Z,12.18
2023-05-17T14:25:44.366Z,13.75
2023-05-17T14:27:47.529Z,11.02
2023-05-17T14:29:50.893Z,12.45
2023-05-17T14:31:53.959Z,14.18
2023-05-17T14:33:57.782Z,15.65
2023-05-17T14:36:01.123Z,10.98
2023-05-17T14:38:03.724Z,13.93
2023-05-17T14:40:07.390Z,14.13
2023-05-17T14:42:10.010Z,14.00
2023-05-17T14:44:12.775Z,11.05
2023-05-17T14:46:15.663Z,10.77
2023-05-17T14:48:18.663Z,13.88
2023-05-17T14:50:22.030Z,14.32
2023-05-17T14:52:25.182Z,12.98
2023-05-17T14:54:30.322Z,14.48
2023-05-17T14:56:33.350Z,16.83
2023-05-17T14:58:36.169Z,14.13
2023-05-17T15:00:39.031Z,12.73
2023-05-17T15:02:41.625Z,11.25
2023-05-17T15:04:45.329Z,17.60
2023-05-17T15:06:48.603Z,14.98
2023-05-17T15:08:52.469Z,13.10
2023-05-17T15:10:55.009Z,12.27
2023-05-17T15:12:58.142Z,13.20
2023-05-17T15:15:01.083Z,14.70
2023-05-17T15:17:04.739Z,12.82
2023-05-17T15:19:08.701Z,9.85
2023-05-17T15:21:11.768Z,10.45
2023-05-17T15:23:14.669Z,14.63
2023-05-17T15:25:17.608Z,12.50
2023-05-17T15:27:20.367Z,13.93
2023-05-17T15:29:23.047Z,12.50
2023-05-17T15:31:26.094Z,11.93
2023-05-17T15:33:29.475Z,10.60
2023-05-17T15:35:32.424Z,11.88
2023-05-17T15:37:35.387Z,10.95
2023-05-17T15:39:38.128Z,11.48
2023-05-17T15:41:41.385Z,10.93
2023-05-17T15:43:44.736Z,10.52
2023-05-17T15:45:47.455Z,9.68
2023-05-17T15:47:50.606Z,8.82
2023-05-17T15:49:53.386Z,7.35
2023-05-17T15:51:56.800Z,12.38
2023-05-17T15:53:59.834Z,12.30
2023-05-17T15:56:03.197Z,11.32
2023-05-17T15:58:08.207Z,11.27
2023-05-17T16:00:12.469Z,10.60
2023-05-17T16:02:15.043Z,7.00
2023-05-17T16:04:18.028Z,11.80
2023-05-17T16:06:22.824Z,9.68
2023-05-17T16:08:26.260Z,9.85
2023-05-17T16:10:29.375Z,12.88
2023-05-17T16:12:32.336Z,8.98
2023-05-17T16:14:35.107Z,9.13
2023-05-17T16:16:37.734Z,10.80
2023-05-17T16:18:41.033Z,8.65
2023-05-17T16:20:44.915Z,11.55
2023-05-17T16:22:48.850Z,15.73
2023-05-17T16:24:55.694Z,12.55
2023-05-17T16:26:59.369Z,11.27
2023-05-17T16:29:02.085Z,9.40
2023-05-17T16:31:06.289Z,10.57
2023-05-17T16:33:09.723Z,11.93
2023-05-17T16:35:14.492Z,9.45
2023-05-17T16:37:17.551Z,12.13
2023-05-17T16:39:20.690Z,9.45
2023-05-17T16:41:23.505Z,8.93
2023-05-17T16:43:26.977Z,10.68
2023-05-17T16:45:30.428Z,10.52
2023-05-17T16:47:33.896Z,9.70
2023-05-17T16:49:41.446Z,9.18
2023-05-17T16:51:46.126Z,11.43
2023-05-17T16:53:49.193Z,8.52
2023-05-17T16:55:51.877Z,8.88
2023-05-17T16:57:54.846Z,10.75
2023-05-17T16:59:57.929Z,11.82
2023-05-17T17:02:00.888Z,13.00
2023-05-17T17:04:04.350Z,8.25
2023-05-17T17:06:07.308Z,9.27
2023-05-17T17:08:09.783Z,10.48
2023-05-17T17:10:12.654Z,8.98
2023-05-17T17:12:23.973Z,9.55
2023-05-17T17:14:27.740Z,9.50
2023-05-17T17:16:32.308Z,10.18
2023-05-17T17:18:35.086Z,10.38
2023-05-17T17:20:37.705Z,11.32
2023-05-17T17:22:42.150Z,9.60
2023-05-17T17:24:45.050Z,8.80
2023-05-17T17:26:50.503Z,12.02
2023-05-17T17:28:53.317Z,12.05
2023-05-17T17:30:55.966Z,10.15
2023-05-17T17:32:59.079Z,12.63
2023-05-17T17:35:02.301Z,9.45
2023-05-17T17:37:04.917Z,9.70
2023-05-17T17:39:08.350Z,10.18
2023-05-17T17:41:11.347Z,9.20
2023-05-17T17:43:14.336Z,7.30
2023-05-17T17:45:16.893Z,10.07
2023-05-17T17:47:19.558Z,10.80
2023-05-17T17:49:22.903Z,8.98
2023-05-17T17:51:25.533Z,10.18
2023-05-17T17:53:29.080Z,9.05
2023-05-17T17:55:32.508Z,12.63
2023-05-17T17:57:35.178Z,11.05
2023-05-17T17:59:38.165Z,8.77
2023-05-17T18:01:41.252Z,7.68
2023-05-17T18:03:44.403Z,10.23
2023-05-17T18:05:47.063Z,9.25
2023-05-17T18:07:49.801Z,9.13
2023-05-17T18:09:53.015Z,8.80
2023-05-17T18:11:57.826Z,9.55
2023-05-17T18:14:02.795Z,9.85
2023-05-17T18:16:05.962Z,7.85
2023-05-17T18:18:09.483Z,13.73
2023-05-17T18:20:12.528Z,9.38
2023-05-17T18:22:17.415Z,9.38
2023-05-17T18:24:20.477Z,10.98
2023-05-17T18:26:23.629Z,8.20
2023-05-17T18:28:40.883Z,9.13
2023-05-17T18:30:44.695Z,8.60
2023-05-17T18:32:47.284Z,8.75
2023-05-17T18:34:50.026Z,8.68
2023-05-17T18:36:53.048Z,11.25
2023-05-17T18:38:59.134Z,9.52
2023-05-17T18:41:02.284Z,8.45
2023-05-17T18:43:05.566Z,8.35
2023-05-17T18:45:08.735Z,8.82
2023-05-17T18:47:12.501Z,10.18
2023-05-17T18:49:15.698Z,8.18
2023-05-17T18:51:18.507Z,9.18
2023-05-17T18:53:21.893Z,8.10
2023-05-17T18:55:25.029Z,9.95
2023-05-17T18:57:29.412Z,8.18
2023-05-17T18:59:32.255Z,9.30
2023-05-17T19:01:35.285Z,9.07
2023-05-17T19:03:38.079Z,7.75
2023-05-17T19:05:41.294Z,8.93
2023-05-17T19:07:44.636Z,9.55
2023-05-17T19:09:47.389Z,12.32
2023-05-17T19:11:50.527Z,12.88
2023-05-17T19:13:53.363Z,9.13
2023-05-17T19:15:55.978Z,9.82
2023-05-17T19:17:58.987Z,11.32
2023-05-17T19:20:02.879Z,12.25
2023-05-17T19:22:06.163Z,11.27
2023-05-17T19:24:09.127Z,10.10
2023-05-17T19:26:11.989Z,10.68
2023-05-17T19:28:15.495Z,12.27
2023-05-17T19:30:18.317Z,7.65
2023-05-17T19:32:23.052Z,10.60
2023-05-17T19:34:27.115Z,10.70
2023-05-17T19:36:29.970Z,10.50
2023-05-17T19:38:35.571Z,9.13
2023-05-17T19:40:41.263Z,10.95
2023-05-17T19:42:44.585Z,10.90
2023-05-17T19:44:47.464Z,10.32
2023-05-17T19:46:51.383Z,11.90
2023-05-17T19:48:54.394Z,11.75
2023-05-17T19:50:57.770Z,11.35
2023-05-17T19:53:00.895Z,17.00
2023-05-17T19:55:04.686Z,10.32
2023-05-17T19:57:08.786Z,10.70
2023-05-17T19:59:12.502Z,14.55
2023-05-17T20:01:15.615Z,12.13
2023-05-17T20:03:19.922Z,10.32
2023-05-17T20:05:25.989Z,8.52
2023-05-17T20:07:30.864Z,7.82
2023-05-17T20:09:33.692Z,8.93
2023-05-17T20:11:36.615Z,11.68
2023-05-17T20:13:40.694Z,10.45
2023-05-17T20:15:43.539Z,10.32
2023-05-17T20:17:46.172Z,12.13
2023-05-17T20:19:49.166Z,11.68
2023-05-17T20:21:51.716Z,15.73
2023-05-17T20:24:01.760Z,12.13
2023-05-17T20:26:04.662Z,11.52
2023-05-17T20:28:07.990Z,11.45
2023-05-17T20:30:12.197Z,14.18
2023-05-17T20:32:15.112Z,12.07
2023-05-17T20:34:17.984Z,11.07
2023-05-17T20:36:21.394Z,12.95
2023-05-17T20:38:24.070Z,12.52
2023-05-17T20:40:26.721Z,10.98
2023-05-17T20:42:31.419Z,12.95
2023-05-17T20:44:34.685Z,11.95
2023-05-17T20:46:38.065Z,11.45
2023-05-17T20:48:43.379Z,11.65
2023-05-17T20:50:47.934Z,10.85
2023-05-17T20:52:51.071Z,12.18
2023-05-17T20:54:53.663Z,15.25
2023-05-17T20:56:56.261Z,11.63
2023-05-17T20:58:59.023Z,13.60
2023-05-17T21:01:01.754Z,11.63
2023-05-17T21:03:05.100Z,10.90
2023-05-17T21:05:10.702Z,11.52
2023-05-17T21:07:13.640Z,9.05
2023-05-17T21:09:19.700Z,9.88
2023-05-17T21:11:22.490Z,12.02
2023-05-17T21:13:28.340Z,10.55
2023-05-17T21:15:31.197Z,10.45
2023-05-17T21:17:34.296Z,11.55
2023-05-17T21:19:37.508Z,15.82
2023-05-17T21:21:40.182Z,13.40
2023-05-17T21:23:42.974Z,13.43
2023-05-17T21:25:45.919Z,16.02
2023-05-17T21:27:48.384Z,9.60
2023-05-17T21:29:50.889Z,10.65
2023-05-17T21:31:53.542Z,10.48
2023-05-17T21:33:57.129Z,15.90
2023-05-17T21:35:59.714Z,9.73
2023-05-17T21:38:02.867Z,11.63
2023-05-17T21:40:07.273Z,11.50
2023-05-17T21:42:09.700Z,15.32
2023-05-17T21:44:12.336Z,12.88
2023-05-17T21:46:15.224Z,11.52
2023-05-17T21:48:18.117Z,12.05
2023-05-17T21:50:21.123Z,10.70
2023-05-17T21:52:23.913Z,11.88
2023-05-17T21:54:27.159Z,14.25
2023-05-17T21:56:30.287Z,12.88
2023-05-17T21:58:33.257Z,10.20
2023-05-17T22:00:35.944Z,10.25
2023-05-17T22:02:42.820Z,13.25
2023-05-17T22:04:45.469Z,10.70
2023-05-17T22:06:48.287Z,11.93
2023-05-17T22:08:50.702Z,9.32
2023-05-17T22:10:56.008Z,13.07
2023-05-17T22:12:58.658Z,13.02
2023-05-17T22:15:02.552Z,13.00
2023-05-17T22:17:08.801Z,11.63
2023-05-17T22:19:11.688Z,12.65
2023-05-17T22:21:15.208Z,14.13
2023-05-17T22:23:17.751Z,11.88
2023-05-17T22:25:21.355Z,11.70
2023-05-17T22:27:24.550Z,9.23
2023-05-17T22:29:27.018Z,11.82
2023-05-17T22:31:29.421Z,11.07
2023-05-17T22:33:32.106Z,11.30
2023-05-17T22:35:34.988Z,12.00
2023-05-17T22:37:38.031Z,10.48
2023-05-17T22:39:41.986Z,11.02
2023-05-17T22:41:44.908Z,13.77
2023-05-17T22:43:47.681Z,11.75
2023-05-17T22:45:50.851Z,12.85
2023-05-17T22:47:54.655Z,12.45
2023-05-17T22:49:58.079Z,11.80
2023-05-17T22:52:06.347Z,11.80
2023-05-17T22:54:08.905Z,11.90
2023-05-17T22:56:12.536Z,9.75
2023-05-17T22:58:16.308Z,8.85
2023-05-17T23:00:19.609Z,11.93
2023-05-17T23:02:22.527Z,11.52
2023-05-17T23:04:27.298Z,10.57
2023-05-17T23:06:32.492Z,9.80
2023-05-17T23:08:35.822Z,11.30
2023-05-17T23:10:38.573Z,12.38
2023-05-17T23:12:41.293Z,9.30
2023-05-17T23:14:44.537Z,9.77
2023-05-17T23:16:47.319Z,11.02
2023-05-17T23:18:50.358Z,11.98
2023-05-17T23:20:53.109Z,10.77
2023-05-17T23:22:56.610Z,11.40
2023-05-17T23:24:59.490Z,11.18
2023-05-17T23:27:01.974Z,11.15
2023-05-17T23:29:05.692Z,14.55
2023-05-17T23:31:09.027Z,10.52
2023-05-17T23:33:13.144Z,10.85
2023-05-17T23:35:15.997Z,11.63
2023-05-17T23:37:18.440Z,8.18
2023-05-17T23:39:20.986Z,8.90
2023-05-17T23:41:25.603Z,10.98
2023-05-17T23:43:27.965Z,11.52
2023-05-17T23:45:31.077Z,11.98
2023-05-17T23:47:34.426Z,9.60
2023-05-17T23:49:37.597Z,10.45
2023-05-17T23:51:40.466Z,9.90
2023-05-17T23:53:43.784Z,8.43
2023-05-17T23:55:46.876Z,8.93
2023-05-17T23:57:50.087Z,9.20
2023-05-17T23:59:53.124Z,8.10
